Time;durP1;ratioP1;P1;durP2;ratioP2;P2;SDS_P1;SDS_P2;PMS_P1;PMS_P2;Temp;Humidity;BMP_temperature;BMP_pressure;BME280_temperature;BME280_humidity;BME280_pressure;Samples;Min_cycle;Max_cycle;Signal;HPM_P1;HPM_P2
2022/05/02 00:00:01;;;;;;;9.27;7.40;;;8.00;99.90;;;;;;5011796;28;20492;-67
2022/05/02 00:02:26;;;;;;;11.43;7.93;;;8.00;99.90;;;;;;5012232;28;20042;-68
2022/05/02 00:04:52;;;;;;;13.40;7.40;;;7.90;99.90;;;;;;5012094;28;20049;-68
2022/05/02 00:07:18;;;;;;;9.88;7.03;;;7.90;99.90;;;;;;5011995;28;20076;-68
2022/05/02 00:09:43;;;;;;;11.90;7.22;;;7.80;99.90;;;;;;5011990;28;20038;-68
2022/05/02 00:12:09;;;;;;;13.73;7.75;;;7.80;99.90;;;;;;5011609;28;20133;-68
2022/05/02 00:14:35;;;;;;;9.95;7.47;;;7.80;99.90;;;;;;5012184;28;20088;-68
2022/05/02 00:17:01;;;;;;;11.82;8.50;;;7.80;99.90;;;;;;5011975;28;20038;-67
2022/05/02 00:19:26;;;;;;;11.63;7.35;;;7.70;99.90;;;;;;5012042;28;20459;-68
2022/05/02 00:21:52;;;;;;;13.35;8.07;;;7.80;99.90;;;;;;5011720;28;20416;-68
2022/05/02 00:24:17;;;;;;;12.68;8.35;;;7.70;99.90;;;;;;5011942;28;20491;-68
2022/05/02 00:26:43;;;;;;;9.30;7.38;;;7.70;99.90;;;;;;5011750;28;20073;-67
2022/05/02 00:29:09;;;;;;;10.23;7.95;;;7.70;99.90;;;;;;5011672;28;20100;-68
2022/05/02 00:31:35;;;;;;;9.60;7.82;;;7.70;99.90;;;;;;5012361;28;20038;-67
2022/05/02 00:34:00;;;;;;;13.38;8.57;;;7.70;99.90;;;;;;5015852;28;20038;-67
2022/05/02 00:36:26;;;;;;;14.98;9.00;;;7.70;99.90;;;;;;5015678;28;20492;-68
2022/05/02 00:38:52;;;;;;;12.90;8.10;;;7.70;99.90;;;;;;5015643;28;20046;-68
2022/05/02 00:41:19;;;;;;;13.07;8.20;;;7.70;99.90;;;;;;5015190;28;20042;-68
2022/05/02 00:43:45;;;;;;;12.18;8.23;;;7.60;99.90;;;;;;5015758;28;20046;-68
2022/05/02 00:46:18;;;;;;;13.27;8.63;;;7.60;99.90;;;;;;5014278;28;20068;-68
2022/05/02 00:48:44;;;;;;;14.30;9.18;;;7.60;99.90;;;;;;5015531;28;20056;-68
2022/05/02 00:51:09;;;;;;;12.02;8.38;;;7.60;99.90;;;;;;5014209;28;20042;-67
2022/05/02 00:53:35;;;;;;;10.40;8.40;;;7.60;99.90;;;;;;5015264;28;20042;-68
2022/05/02 00:56:01;;;;;;;15.13;8.95;;;7.50;99.90;;;;;;5015546;28;20049;-67
2022/05/02 00:58:27;;;;;;;9.88;8.10;;;7.50;99.90;;;;;;5015402;28;20049;-67
2022/05/02 01:00:52;;;;;;;10.95;8.25;;;7.60;99.90;;;;;;5014899;28;20128;-68
2022/05/02 01:03:18;;;;;;;12.43;8.85;;;7.60;99.90;;;;;;5015290;28;20104;-68
2022/05/02 01:08:32;;;;;;;12.63;8.23;;;7.60;99.90;;;;;;5015020;28;20499;-68
2022/05/02 01:10:59;;;;;;;11.07;8.57;;;7.60;99.90;;;;;;5014903;28;20034;-68
2022/05/02 01:13:36;;;;;;;12.20;8.75;;;7.60;99.90;;;;;;5015130;28;20404;-68
2022/05/02 01:16:17;;;;;;;10.07;7.50;;;7.70;99.90;;;;;;5015075;28;20042;-68
2022/05/02 01:18:44;;;;;;;9.80;8.15;;;7.60;99.90;;;;;;5014824;28;20038;-68
2022/05/02 01:21:21;;;;;;;10.45;8.95;;;7.50;99.90;;;;;;5014525;28;20511;-67
2022/05/02 01:23:48;;;;;;;10.80;8.45;;;7.50;99.90;;;;;;5015059;28;20034;-67
2022/05/02 01:26:15;;;;;;;10.88;7.78;;;7.40;99.90;;;;;;5014757;28;20115;-68
2022/05/02 01:28:47;;;;;;;12.93;8.35;;;7.40;99.90;;;;;;5014570;28;20049;-68
2022/05/02 01:31:13;;;;;;;10.93;7.85;;;7.40;99.90;;;;;;5014266;28;20507;-68
2022/05/02 01:33:40;;;;;;;11.88;8.52;;;7.40;99.90;;;;;;5014605;28;20606;-67
2022/05/02 01:36:06;;;;;;;12.10;8.82;;;7.30;99.90;;;;;;5014730;28;20045;-67
2022/05/02 01:38:32;;;;;;;14.15;8.18;;;7.30;99.90;;;;;;5014601;28;20408;-68
2022/05/02 01:40:57;;;;;;;12.93;9.18;;;7.30;99.90;;;;;;5014322;28;20038;-67
2022/05/02 01:43:23;;;;;;;13.02;8.85;;;7.30;99.90;;;;;;5013931;28;20562;-67
2022/05/02 01:45:48;;;;;;;12.90;9.80;;;7.30;99.90;;;;;;5014263;28;20038;-67
2022/05/02 01:48:14;;;;;;;14.95;9.98;;;7.30;99.90;;;;;;5014524;28;20046;-67
2022/05/02 01:50:39;;;;;;;15.65;10.15;;;7.20;99.90;;;;;;5014213;28;20520;-67
2022/05/02 01:53:05;;;;;;;19.92;10.02;;;7.20;99.90;;;;;;5014688;28;20045;-68
2022/05/02 01:55:31;;;;;;;12.10;9.15;;;7.20;99.90;;;;;;5014581;28;20050;-67
2022/05/02 01:57:56;;;;;;;16.48;10.35;;;7.20;99.90;;;;;;5014462;28;20470;-68
2022/05/02 02:00:22;;;;;;;14.63;9.75;;;7.20;99.90;;;;;;5012814;28;20045;-68
2022/05/02 02:02:47;;;;;;;15.25;10.05;;;7.20;99.90;;;;;;5014406;28;20124;-67
2022/05/02 02:07:57;;;;;;;13.80;9.90;;;7.10;99.90;;;;;;5014215;28;20058;-68
2022/05/02 02:10:22;;;;;;;14.43;9.60;;;7.00;99.90;;;;;;5012742;28;20050;-67
2022/05/02 02:12:48;;;;;;;19.08;9.88;;;6.90;99.90;;;;;;5014092;28;20037;-67
2022/05/02 02:15:14;;;;;;;16.95;10.95;;;6.90;99.90;;;;;;5014161;28;20042;-68
2022/05/02 02:17:41;;;;;;;18.15;10.90;;;7.00;99.90;;;;;;5013977;28;20096;-67
2022/05/02 02:20:07;;;;;;;15.98;11.27;;;7.00;99.90;;;;;;5012347;28;20116;-67
2022/05/02 02:22:33;;;;;;;12.52;10.13;;;6.90;99.90;;;;;;5012449;28;20049;-68
2022/05/02 02:24:59;;;;;;;15.50;9.82;;;7.00;99.90;;;;;;5013744;28;20064;-67
2022/05/02 02:27:26;;;;;;;15.13;10.43;;;6.90;99.90;;;;;;5013446;28;20068;-68
2022/05/02 02:29:51;;;;;;;14.85;10.15;;;6.90;99.90;;;;;;5013531;28;20492;-67
2022/05/02 02:32:17;;;;;;;13.68;10.32;;;6.90;99.90;;;;;;5013288;28;20045;-68
2022/05/02 02:34:42;;;;;;;12.38;9.85;;;6.90;99.90;;;;;;5013655;28;20077;-67
2022/05/02 02:37:08;;;;;;;12.27;9.02;;;6.80;99.90;;;;;;5013535;28;20038;-68
2022/05/02 02:39:33;;;;;;;15.55;9.57;;;6.80;99.90;;;;;;5012090;28;20065;-67
2022/05/02 02:41:59;;;;;;;13.75;10.48;;;6.70;99.90;;;;;;5013017;28;20113;-67
2022/05/02 02:44:24;;;;;;;12.50;8.88;;;6.70;99.90;;;;;;5013549;28;20034;-67
2022/05/02 02:46:50;;;;;;;11.95;9.43;;;6.70;99.90;;;;;;5013504;28;20037;-67
2022/05/02 02:49:16;;;;;;;11.98;9.15;;;6.70;99.90;;;;;;5013313;28;20403;-67
2022/05/02 02:51:41;;;;;;;13.75;9.35;;;6.60;99.90;;;;;;5012980;28;20475;-68
2022/05/02 02:54:07;;;;;;;12.73;10.68;;;6.60;99.90;;;;;;5012242;28;20121;-67
2022/05/02 02:56:32;;;;;;;14.40;9.48;;;6.50;99.90;;;;;;5013067;28;20048;-68
2022/05/02 02:58:58;;;;;;;13.23;9.93;;;6.50;99.90;;;;;;5013188;28;20049;-67
2022/05/02 03:01:23;;;;;;;15.98;10.57;;;6.40;99.90;;;;;;5012795;28;20042;-68
2022/05/02 03:03:49;;;;;;;14.30;10.45;;;6.40;99.90;;;;;;5013140;28;20041;-67
2022/05/02 03:06:15;;;;;;;18.00;11.13;;;6.40;99.90;;;;;;5012928;28;20042;-68
2022/05/02 03:08:41;;;;;;;17.80;10.75;;;6.40;99.90;;;;;;5012834;28;20109;-67
2022/05/02 03:11:07;;;;;;;14.43;10.32;;;6.40;99.90;;;;;;5012644;28;20049;-68
2022/05/02 03:13:34;;;;;;;13.98;10.50;;;6.40;99.90;;;;;;5012857;28;20038;-67
2022/05/02 03:16:00;;;;;;;13.35;10.13;;;6.30;99.90;;;;;;5013036;28;20096;-67
2022/05/02 03:18:26;;;;;;;14.50;10.57;;;6.30;99.90;;;;;;5012756;28;20046;-68
2022/05/02 03:20:52;;;;;;;13.82;11.07;;;6.30;99.90;;;;;;5012595;28;20117;-67
2022/05/02 03:23:18;;;;;;;13.25;10.15;;;6.20;99.90;;;;;;5012749;28;20377;-67
2022/05/02 03:25:44;;;;;;;13.50;9.88;;;6.20;99.90;;;;;;5011211;28;20050;-67
2022/05/02 03:28:10;;;;;;;12.23;9.85;;;6.20;99.90;;;;;;5012473;28;20044;-67
2022/05/02 03:30:35;;;;;;;12.63;10.32;;;6.20;99.90;;;;;;5012437;28;20037;-67
2022/05/02 03:33:01;;;;;;;13.77;11.00;;;6.20;99.90;;;;;;5012657;28;20492;-67
2022/05/02 03:35:28;;;;;;;13.40;11.18;;;6.20;99.90;;;;;;5012717;28;20061;-67
2022/05/02 03:37:53;;;;;;;15.60;11.85;;;6.10;99.90;;;;;;5012307;28;20133;-67
2022/05/02 03:40:19;;;;;;;12.95;10.50;;;6.10;99.90;;;;;;5012024;28;20125;-67
2022/05/02 03:42:45;;;;;;;14.43;10.95;;;6.10;99.90;;;;;;5012270;28;20038;-67
2022/05/02 03:45:11;;;;;;;15.98;11.77;;;6.10;99.90;;;;;;5012406;28;20042;-67
2022/05/02 03:47:37;;;;;;;15.90;11.10;;;6.10;99.90;;;;;;5012290;28;20034;-67
2022/05/02 03:50:03;;;;;;;18.02;12.70;;;6.00;99.90;;;;;;5012008;28;20029;-67
2022/05/02 03:52:28;;;;;;;18.08;13.65;;;6.00;99.90;;;;;;5011975;28;20514;-67
2022/05/02 03:54:54;;;;;;;15.05;11.95;;;6.00;99.90;;;;;;5012111;28;20112;-67
2022/05/02 03:57:20;;;;;;;15.57;11.77;;;6.00;99.90;;;;;;5012285;28;20439;-67
2022/05/02 03:59:46;;;;;;;17.10;12.23;;;6.00;99.90;;;;;;5010803;28;20037;-67
2022/05/02 04:02:12;;;;;;;16.42;11.82;;;6.00;99.90;;;;;;5011868;28;20050;-67
2022/05/02 04:04:38;;;;;;;15.10;11.13;;;6.00;99.90;;;;;;5011956;28;20033;-67
2022/05/02 04:07:04;;;;;;;17.15;11.82;;;6.00;99.90;;;;;;5011739;28;20443;-67
2022/05/02 04:09:30;;;;;;;16.65;13.48;;;6.00;99.90;;;;;;5011896;28;20503;-67
2022/05/02 04:11:56;;;;;;;19.25;13.25;;;6.00;99.90;;;;;;5011926;28;20045;-67
2022/05/02 04:14:22;;;;;;;17.48;13.15;;;6.00;99.90;;;;;;5012172;28;20117;-67
2022/05/02 04:16:49;;;;;;;19.92;12.75;;;6.00;99.90;;;;;;5011904;28;20510;-67
2022/05/02 04:19:16;;;;;;;18.95;13.88;;;6.00;99.90;;;;;;5011891;28;20041;-67
2022/05/02 04:21:42;;;;;;;18.73;12.88;;;5.90;99.90;;;;;;5010326;28;20041;-67
2022/05/02 04:24:07;;;;;;;18.85;13.57;;;5.90;99.90;;;;;;5010622;28;20121;-67
2022/05/02 04:26:33;;;;;;;17.40;12.52;;;5.90;99.90;;;;;;5010489;28;20482;-67
2022/05/02 04:28:59;;;;;;;16.40;13.20;;;6.00;99.90;;;;;;5010583;28;20069;-67
2022/05/02 04:31:25;;;;;;;18.27;14.20;;;5.90;99.90;;;;;;5011472;28;20492;-67
2022/05/02 04:33:50;;;;;;;17.50;14.35;;;5.90;99.90;;;;;;5010472;28;20042;-67
2022/05/02 04:36:16;;;;;;;20.45;13.90;;;5.90;99.90;;;;;;5010489;28;20042;-67
2022/05/02 04:38:42;;;;;;;18.98;14.10;;;6.00;99.90;;;;;;5011629;28;20041;-67
2022/05/02 04:41:07;;;;;;;20.60;14.30;;;6.00;99.90;;;;;;5011500;28;20483;-67
2022/05/02 04:43:33;;;;;;;20.42;14.55;;;6.10;99.90;;;;;;5011632;28;20038;-67
2022/05/02 04:45:58;;;;;;;20.63;14.43;;;6.10;99.90;;;;;;5010328;28;20042;-67
2022/05/02 04:48:24;;;;;;;20.65;14.35;;;6.10;99.90;;;;;;5010386;28;20038;-67
2022/05/02 04:50:49;;;;;;;20.23;13.75;;;6.20;99.90;;;;;;5011365;28;20034;-67
2022/05/02 04:53:15;;;;;;;17.60;13.82;;;6.30;99.90;;;;;;5011469;28;20033;-67
2022/05/02 04:55:41;;;;;;;20.27;14.48;;;6.40;99.90;;;;;;5011784;28;20052;-67
2022/05/02 04:58:06;;;;;;;19.38;14.68;;;6.60;99.90;;;;;;5011631;28;20052;-67
2022/05/02 05:00:32;;;;;;;22.58;16.45;;;6.70;99.90;;;;;;5011431;28;20049;-68
2022/05/02 05:02:57;;;;;;;19.70;14.25;;;6.80;99.90;;;;;;5011635;28;20544;-67
2022/05/02 05:05:24;;;;;;;22.20;14.10;;;6.90;99.90;;;;;;5011440;28;20542;-67
2022/05/02 05:07:50;;;;;;;22.42;15.70;;;7.20;99.90;;;;;;5011365;28;20077;-68
2022/05/02 05:10:16;;;;;;;21.63;13.40;;;7.30;99.90;;;;;;5011366;28;20073;-66
2022/05/02 05:13:00;;;;;;;17.50;13.57;;;7.60;99.90;;;;;;5011630;28;20073;-66
2022/05/02 05:18:36;;;;;;;19.70;14.02;;;7.90;99.90;;;;;;5013394;28;20318;-66
2022/05/02 05:21:17;;;;;;;16.25;12.00;;;8.00;99.90;;;;;;5014778;28;20042;-66
2022/05/02 05:24:01;;;;;;;20.00;15.52;;;8.30;99.90;;;;;;5014952;28;20041;-67
2022/05/02 05:26:41;;;;;;;;;;;8.60;99.90;;;;;;5012028;28;20046;-67
2022/05/02 05:29:39;;;;;;;26.38;17.15;;;8.80;99.90;;;;;;5013637;28;19924;-67
2022/05/02 05:32:38;;;;;;;23.88;16.52;;;9.10;99.90;;;;;;5014510;28;20049;-67
2022/05/02 05:35:08;;;;;;;28.48;16.83;;;9.30;99.90;;;;;;5014610;28;20045;-66
2022/05/02 05:37:58;;;;;;;28.90;18.98;;;9.60;99.90;;;;;;5014598;28;20049;-68
2022/05/02 05:40:29;;;;;;;23.73;17.67;;;9.70;99.90;;;;;;5013038;28;20045;-68
2022/05/02 05:43:16;;;;;;;23.23;17.02;;;9.80;99.90;;;;;;5013331;28;20064;-68
2022/05/02 05:45:46;;;;;;;25.00;17.33;;;9.90;99.90;;;;;;5014621;28;20092;-68
2022/05/02 05:48:29;;;;;;;25.25;18.35;;;10.00;99.90;;;;;;5013148;28;20052;-69
2022/05/02 05:51:28;;;;;;;24.60;17.98;;;10.20;99.90;;;;;;5012798;28;20048;-68
2022/05/02 05:54:16;;;;;;;21.63;15.93;;;10.40;99.90;;;;;;5014281;28;20056;-68
2022/05/02 05:57:04;;;;;;;19.85;15.60;;;10.50;99.90;;;;;;5013027;28;20121;-68
2022/05/02 05:59:56;;;;;;;24.08;16.67;;;10.70;99.90;;;;;;5014191;28;20445;-69
2022/05/02 06:02:30;;;;;;;23.77;16.85;;;10.80;99.90;;;;;;5014231;28;20504;-69
2022/05/02 06:04:57;;;;;;;;;;;10.90;99.90;;;;;;5014669;28;20042;-68
2022/05/02 06:07:27;;;;;;;20.42;15.40;;;11.00;99.90;;;;;;5014131;28;19964;-69
2022/05/02 06:09:55;;;;;;;18.65;12.80;;;11.10;99.90;;;;;;5013881;28;20050;-69
2022/05/02 06:12:23;;;;;;;17.88;12.27;;;11.10;99.90;;;;;;5013853;28;20034;-69
2022/05/02 06:20:24;;;;;;;21.83;11.90;;;11.50;99.90;;;;;;5013589;28;20046;-71
2022/05/02 06:22:50;;;;;;;15.15;11.80;;;11.60;99.90;;;;;;5013686;28;20064;-70
2022/05/02 06:25:19;;;;;;;13.40;11.02;;;11.70;99.90;;;;;;5014054;28;20463;-70
2022/05/02 06:27:48;;;;;;;14.30;11.45;;;11.90;99.90;;;;;;5013673;28;20041;-70
2022/05/02 06:30:14;;;;;;;14.02;11.13;;;11.70;99.90;;;;;;5013348;28;20037;-70
2022/05/02 06:32:43;;;;;;;12.10;10.88;;;11.90;99.90;;;;;;5013710;28;20037;-70
2022/05/02 06:35:08;;;;;;;12.30;10.55;;;11.90;99.90;;;;;;5013594;28;20038;-71
2022/05/02 06:37:58;;;;;;;14.77;10.93;;;12.20;99.90;;;;;;5013249;28;20488;-70
2022/05/02 06:40:51;;;;;;;13.38;10.00;;;12.50;99.90;;;;;;5013358;28;20041;-71
2022/05/02 06:43:37;;;;;;;10.65;9.25;;;12.70;99.90;;;;;;5013398;28;20404;-72
2022/05/02 06:46:20;;;;;;;9.95;7.93;;;12.80;99.50;;;;;;5013508;28;20049;-71
2022/05/02 06:48:56;;;;;;;10.45;8.68;;;12.70;98.60;;;;;;5013367;28;20042;-70
2022/05/02 06:51:35;;;;;;;11.50;8.77;;;12.80;97.70;;;;;;5013047;28;20495;-71
2022/05/02 06:54:22;;;;;;;13.43;8.18;;;13.00;96.00;;;;;;5012051;28;20034;-71
2022/05/02 06:57:16;;;;;;;11.50;7.55;;;12.90;96.40;;;;;;5013382;28;20046;-71
2022/05/02 07:00:00;;;;;;;;;;;13.00;94.60;;;;;;5012647;28;20041;-71
2022/05/02 07:02:38;;;;;;;11.63;7.85;;;13.30;96.10;;;;;;5011832;28;19924;-70
2022/05/02 07:05:17;;;;;;;10.65;7.18;;;13.50;96.20;;;;;;5013234;28;20053;-71
2022/05/02 07:07:49;;;;;;;11.07;7.65;;;13.60;91.10;;;;;;5011952;28;20096;-72
2022/05/02 07:10:23;;;;;;;11.98;8.20;;;13.30;93.40;;;;;;5012792;28;20103;-71
2022/05/02 07:13:03;;;;;;;11.25;7.93;;;13.40;94.40;;;;;;5013036;28;20447;-71
2022/05/02 07:15:39;;;;;;;8.15;7.32;;;13.80;94.80;;;;;;5011616;28;20042;-71
2022/05/02 07:18:07;;;;;;;9.27;7.95;;;14.20;90.50;;;;;;5012638;28;20527;-71
2022/05/02 07:21:00;;;;;;;7.72;5.85;;;14.30;88.20;;;;;;5011575;28;20439;-71
2022/05/02 07:23:34;;;;;;;9.40;6.85;;;14.50;76.40;;;;;;5011479;28;20053;-71
2022/05/02 07:26:07;;;;;;;7.07;6.38;;;14.60;76.00;;;;;;5011405;28;20053;-71
2022/05/02 07:28:46;;;;;;;;;;;14.80;74.90;;;;;;5011793;28;20099;-71
2022/05/02 07:31:14;;;;;;;7.45;6.68;;;14.80;74.30;;;;;;5012360;28;19917;-70
2022/05/02 07:33:41;;;;;;;8.65;6.90;;;14.90;74.20;;;;;;5012564;28;20042;-71
2022/05/02 07:36:07;;;;;;;6.20;5.53;;;15.10;73.40;;;;;;5011232;28;20041;-71
2022/05/02 07:38:36;;;;;;;7.35;6.05;;;15.30;71.30;;;;;;5012664;28;20041;-71
2022/05/02 07:41:22;;;;;;;7.97;6.10;;;15.20;69.60;;;;;;5010382;28;20048;-71
2022/05/02 07:43:50;;;;;;;11.07;7.25;;;15.30;67.50;;;;;;5011133;28;20057;-72
2022/05/02 07:46:20;;;;;;;10.45;6.25;;;15.00;66.40;;;;;;4994720;28;20500;-71
2022/05/02 07:48:48;;;;;;;8.43;6.63;;;15.40;67.60;;;;;;5011075;28;20073;-71
2022/05/02 07:51:14;;;;;;;13.32;7.25;;;15.40;67.60;;;;;;5010835;28;20042;-71
2022/05/02 07:53:43;;;;;;;8.05;6.35;;;15.50;67.90;;;;;;5012399;28;20038;-72
2022/05/02 07:56:10;;;;;;;7.10;6.25;;;15.80;68.10;;;;;;5012295;28;20168;-71
2022/05/02 07:58:45;;;;;;;9.32;6.60;;;15.80;65.50;;;;;;5011202;28;20132;-71
2022/05/02 08:01:11;;;;;;;9.10;6.50;;;15.90;65.70;;;;;;5011957;28;20428;-71
2022/05/02 08:03:36;;;;;;;10.98;7.00;;;16.00;65.40;;;;;;4994576;28;20048;-71
2022/05/02 08:06:43;;;;;;;10.05;6.57;;;16.00;66.20;;;;;;5010940;28;20042;-71
2022/05/02 08:09:28;;;;;;;8.80;6.60;;;16.20;63.10;;;;;;5012023;28;20042;-72
2022/05/02 08:12:03;;;;;;;10.60;6.32;;;16.50;62.20;;;;;;5012004;28;20034;-72
2022/05/02 08:15:06;;;;;;;10.90;6.65;;;16.60;62.60;;;;;;5012401;28;20042;-70
2022/05/02 08:17:58;;;;;;;8.55;7.38;;;16.60;62.30;;;;;;5010775;28;20049;-72
2022/05/02 08:20:24;;;;;;;9.75;6.80;;;16.20;62.40;;;;;;5012181;28;20077;-72
2022/05/02 08:29:31;;;;;;;8.32;6.63;;;16.70;59.00;;;;;;5001264;28;20050;-72
2022/05/02 08:32:12;;;;;;;9.80;6.75;;;16.50;58.30;;;;;;5018084;28;20165;-72
2022/05/02 08:34:43;;;;;;;8.88;7.28;;;16.70;58.20;;;;;;4993949;28;20041;-72
2022/05/02 08:37:12;;;;;;;10.05;7.45;;;16.80;57.50;;;;;;5005442;28;20054;-72
2022/05/02 08:39:48;;;;;;;11.57;7.50;;;16.80;57.50;;;;;;5010583;28;20041;-71
2022/05/02 08:43:04;;;;;;;10.43;8.00;;;16.80;57.40;;;;;;5011665;28;20046;-72
2022/05/02 08:45:48;;;;;;;9.88;6.88;;;17.10;59.60;;;;;;5002257;28;20145;-71
2022/05/02 08:51:58;;;;;;;10.63;6.88;;;17.20;55.70;;;;;;5011590;28;20077;-72
2022/05/02 08:54:44;;;;;;;7.18;6.35;;;17.30;54.10;;;;;;5015538;28;20052;-71
2022/05/02 08:57:39;;;;;;;8.77;6.70;;;17.50;55.10;;;;;;5015284;28;20622;-71
2022/05/02 09:00:11;;;;;;;10.40;7.13;;;17.50;54.70;;;;;;5015172;28;20064;-72
2022/05/02 09:03:07;;;;;;;9.00;6.57;;;17.60;56.50;;;;;;5015342;28;20519;-73
2022/05/02 09:05:58;;;;;;;7.90;6.93;;;17.90;54.90;;;;;;5015354;28;20056;-71
2022/05/02 09:09:01;;;;;;;11.32;7.38;;;18.00;52.30;;;;;;5015323;28;20126;-72
2022/05/02 09:11:35;;;;;;;8.63;6.75;;;18.00;52.50;;;;;;5013522;28;20080;-71
2022/05/02 09:14:38;;;;;;;6.75;5.78;;;17.40;54.20;;;;;;5009544;28;20103;-71
2022/05/02 09:17:22;;;;;;;11.13;7.22;;;17.40;53.90;;;;;;5006100;28;20049;-71
2022/05/02 09:20:13;;;;;;;10.18;6.97;;;17.30;54.50;;;;;;5012288;28;20487;-72
2022/05/02 09:22:54;;;;;;;9.43;7.05;;;17.90;54.50;;;;;;5015001;28;20037;-72
2022/05/02 09:25:48;;;;;;;8.23;6.43;;;18.20;54.50;;;;;;5013589;28;20132;-72
2022/05/02 09:28:21;;;;;;;8.13;7.03;;;18.30;53.30;;;;;;5013478;28;20177;-72
2022/05/02 09:31:06;;;;;;;10.95;6.88;;;18.10;53.00;;;;;;5014690;28;20030;-71
2022/05/02 09:33:53;;;;;;;10.40;6.53;;;18.30;53.20;;;;;;5014109;28;20046;-72
2022/05/02 09:36:26;;;;;;;9.77;7.50;;;18.40;52.90;;;;;;5014846;28;20045;-72
2022/05/02 09:39:11;;;;;;;9.00;6.57;;;18.50;52.70;;;;;;5013348;28;20058;-71
2022/05/02 09:42:07;;;;;;;8.75;6.57;;;18.30;52.20;;;;;;5014483;28;20050;-72
2022/05/02 09:51:28;;;;;;;9.20;7.03;;;18.00;51.20;;;;;;5014210;28;20038;-71
2022/05/02 09:57:23;;;;;;;8.35;6.18;;;17.60;52.00;;;;;;5012994;28;21692;-72
2022/05/02 10:01:06;;;;;;;9.35;6.57;;;17.00;52.90;;;;;;5012962;28;20073;-71
2022/05/02 10:02:46;;;;;;;9.02;6.97;;;17.20;52.70;;;;;;5014039;28;20056;-72
2022/05/02 10:05:21;;;;;;;7.57;6.57;;;17.00;50.90;;;;;;5012616;28;20046;-71
2022/05/02 10:08:02;;;;;;;9.35;6.72;;;17.00;52.50;;;;;;5014106;28;20040;-72
2022/05/02 10:10:42;;;;;;;8.43;7.03;;;17.30;52.50;;;;;;5014058;28;20044;-72
2022/05/02 10:13:21;;;;;;;10.93;7.05;;;17.10;51.50;;;;;;5013036;28;20420;-72
2022/05/02 10:15:49;;;;;;;9.30;6.97;;;16.80;52.30;;;;;;5012937;28;20650;-71
2022/05/02 10:18:15;;;;;;;11.25;7.65;;;16.70;51.60;;;;;;5013808;28;20100;-71
2022/05/02 10:20:44;;;;;;;10.45;7.10;;;16.50;52.30;;;;;;5013778;28;20046;-72
2022/05/02 10:23:42;;;;;;;8.98;6.63;;;16.30;52.80;;;;;;5012814;28;20400;-72
2022/05/02 10:26:36;;;;;;;8.85;6.75;;;16.30;52.20;;;;;;5012515;28;20500;-72
2022/05/02 10:29:26;;;;;;;8.90;6.70;;;15.70;51.40;;;;;;5012447;28;20050;-71
2022/05/02 10:32:01;;;;;;;8.85;6.72;;;15.10;53.60;;;;;;5013436;28;20045;-71
2022/05/02 10:34:30;;;;;;;8.65;7.22;;;15.50;55.10;;;;;;5012517;28;20073;-71
2022/05/02 10:37:00;;;;;;;10.73;6.55;;;15.50;56.20;;;;;;4999888;28;20045;-72
2022/05/02 10:39:38;;;;;;;9.77;7.10;;;15.40;55.90;;;;;;4994161;28;20046;-71
2022/05/02 10:42:06;;;;;;;11.50;8.13;;;15.50;59.10;;;;;;4992515;28;20050;-70
2022/05/02 10:44:48;;;;;;;8.88;7.22;;;15.50;58.50;;;;;;4993796;28;20054;-71
2022/05/02 10:47:18;;;;;;;12.40;7.35;;;15.80;58.20;;;;;;4993766;28;20046;-71
2022/05/02 10:50:03;;;;;;;12.93;8.05;;;16.10;59.50;;;;;;4992445;28;20467;-71
2022/05/02 10:52:35;;;;;;;8.32;7.35;;;15.80;53.90;;;;;;4992731;28;20117;-71
2022/05/02 10:55:05;;;;;;;10.85;7.78;;;16.10;54.60;;;;;;4992592;28;20050;-71
2022/05/02 10:57:39;;;;;;;10.52;6.65;;;16.40;55.90;;;;;;4992441;28;20042;-71
2022/05/02 11:00:09;;;;;;;10.88;7.63;;;16.50;55.30;;;;;;4991955;28;20404;-72
2022/05/02 11:02:47;;;;;;;11.30;7.53;;;16.20;54.60;;;;;;4993839;28;20385;-70
2022/05/02 11:05:37;;;;;;;10.45;6.93;;;16.20;54.30;;;;;;4992220;28;20447;-71
2022/05/02 11:08:30;;;;;;;9.57;6.40;;;16.40;53.50;;;;;;4991906;28;20504;-72
2022/05/02 11:11:05;;;;;;;11.30;6.93;;;16.40;52.40;;;;;;4992109;28;20068;-71
2022/05/02 11:13:44;;;;;;;13.18;7.88;;;16.70;53.50;;;;;;4993463;28;20030;-71
2022/05/02 11:16:18;;;;;;;10.93;6.88;;;16.90;54.10;;;;;;4991320;28;20057;-71
2022/05/02 11:22:05;;;;;;;9.30;6.78;;;17.00;53.10;;;;;;4992926;28;20534;-71
2022/05/02 11:24:36;;;;;;;7.60;6.55;;;17.30;53.20;;;;;;4993235;28;20092;-72
2022/05/02 11:27:09;;;;;;;7.47;5.80;;;17.30;53.40;;;;;;4997672;28;20479;-71
2022/05/02 11:29:53;;;;;;;;;;;17.40;53.20;;;;;;4993637;28;20050;-71
2022/05/02 11:32:30;;;;;;;7.13;5.50;;;17.20;52.00;;;;;;4992843;28;20319;-72
2022/05/02 11:35:34;;;;;;;10.07;6.50;;;16.80;52.30;;;;;;4992535;28;20429;-70
2022/05/02 11:37:59;;;;;;;9.23;6.85;;;16.90;52.20;;;;;;4992380;28;20506;-68
2022/05/02 11:40:33;;;;;;;10.50;7.15;;;16.90;52.30;;;;;;4992836;28;20117;-69
2022/05/02 11:42:59;;;;;;;9.20;6.63;;;16.80;51.20;;;;;;4992675;28;20065;-69
2022/05/02 11:45:43;;;;;;;9.43;6.28;;;16.80;52.20;;;;;;4991557;28;20050;-69
2022/05/02 11:48:18;;;;;;;7.28;6.25;;;16.90;51.50;;;;;;5079666;22;20498;-73
2022/05/02 11:50:46;;;;;;;7.93;6.00;;;17.10;51.60;;;;;;5068854;28;20048;-73
2022/05/02 11:53:14;;;;;;;9.45;6.57;;;17.20;51.20;;;;;;5070468;28;20032;-73
2022/05/02 11:55:42;;;;;;;8.43;6.75;;;17.30;49.20;;;;;;5070855;28;20040;-73
2022/05/02 11:58:34;;;;;;;8.18;6.20;;;17.50;50.60;;;;;;5053515;28;20037;-73
2022/05/02 12:01:06;;;;;;;7.75;6.18;;;17.50;51.80;;;;;;5049321;28;20040;-72
2022/05/02 12:03:53;;;;;;;8.35;6.53;;;17.60;51.40;;;;;;5050695;28;20041;-72
2022/05/02 12:06:30;;;;;;;10.02;6.38;;;17.60;51.00;;;;;;5049859;28;20055;-73
2022/05/02 12:08:59;;;;;;;10.00;6.05;;;17.50;50.20;;;;;;5050399;28;20052;-73
2022/05/02 12:11:24;;;;;;;8.90;6.03;;;17.60;49.70;;;;;;5050607;28;20087;-74
2022/05/02 12:13:51;;;;;;;10.98;7.45;;;17.60;51.50;;;;;;5050414;28;20037;-73
2022/05/02 12:16:18;;;;;;;11.10;6.70;;;17.80;51.80;;;;;;5050156;28;20041;-74
2022/05/02 12:18:55;;;;;;;10.57;6.65;;;17.70;51.10;;;;;;5051549;28;20052;-73
2022/05/02 12:21:45;;;;;;;11.35;7.60;;;17.50;51.10;;;;;;5049557;28;20048;-73
2022/05/02 12:24:14;;;;;;;7.10;5.63;;;17.50;50.50;;;;;;5033410;28;20041;-72
2022/05/02 12:26:45;;;;;;;9.85;6.32;;;17.50;51.40;;;;;;5051163;28;20491;-74
2022/05/02 12:29:18;;;;;;;11.05;7.20;;;17.30;51.70;;;;;;5054457;28;20037;-73
2022/05/02 12:32:02;;;;;;;7.63;5.63;;;17.30;51.60;;;;;;5055357;28;20051;-73
2022/05/02 12:34:36;;;;;;;7.35;5.70;;;17.20;52.70;;;;;;5055761;28;20124;-73
2022/05/02 12:37:08;;;;;;;7.90;5.32;;;17.20;51.90;;;;;;5054089;28;20083;-74
2022/05/02 12:39:43;;;;;;;6.70;5.05;;;17.00;52.30;;;;;;5037472;28;20566;-73
2022/05/02 12:42:19;;;;;;;9.32;4.82;;;16.70;50.40;;;;;;5053878;28;20098;-74
2022/05/02 12:44:57;;;;;;;5.97;4.32;;;16.90;50.50;;;;;;5054055;28;20048;-74
2022/05/02 12:47:25;;;;;;;7.13;5.22;;;17.10;51.80;;;;;;5037535;28;20067;-73
2022/05/02 12:50:04;;;;;;;7.55;4.88;;;17.20;51.30;;;;;;5055122;28;20511;-73
2022/05/02 12:52:31;;;;;;;6.43;4.70;;;17.00;48.60;;;;;;5055232;28;20032;-73
2022/05/02 12:54:57;;;;;;;6.90;4.30;;;16.80;48.80;;;;;;5049378;28;20110;-73
2022/05/02 13:00:33;;;;;;;6.55;4.88;;;16.90;48.60;;;;;;5051290;28;20044;-74
2022/05/02 13:03:02;;;;;;;7.50;4.80;;;16.90;48.90;;;;;;5050067;28;20038;-73
2022/05/02 13:05:32;;;;;;;4.72;3.97;;;16.90;48.70;;;;;;5049431;28;20124;-73
2022/05/02 13:08:12;;;;;;;7.40;4.20;;;16.90;48.50;;;;;;5053777;28;20513;-73
2022/05/02 13:10:40;;;;;;;17.65;5.72;;;16.80;48.00;;;;;;5046036;28;20037;-73
2022/05/02 13:13:08;;;;;;;7.75;3.97;;;17.20;48.50;;;;;;5047598;28;20442;-72
2022/05/02 13:15:36;;;;;;;8.00;5.28;;;17.50;47.50;;;;;;5049843;28;20041;-72
2022/05/02 13:18:22;;;;;;;6.88;3.97;;;17.70;47.60;;;;;;5054032;28;20045;-71
2022/05/02 13:21:02;;;;;;;5.18;4.30;;;17.80;48.50;;;;;;5052771;28;20061;-72
2022/05/02 13:23:47;;;;;;;6.43;3.78;;;17.90;46.50;;;;;;5036361;28;20041;-73
2022/05/02 13:26:18;;;;;;;6.35;3.85;;;18.50;49.10;;;;;;5053130;28;20044;-72
2022/05/02 13:29:19;;;;;;;4.70;3.25;;;18.60;48.30;;;;;;5054730;28;20095;-72
2022/05/02 13:31:44;;;;;;;6.68;5.68;;;18.50;45.50;;;;;;5053128;28;20041;-72
2022/05/02 13:34:36;;;;;;;7.13;6.22;;;18.30;47.60;;;;;;5053123;28;20091;-72
2022/05/02 13:37:07;;;;;;;7.25;5.78;;;17.90;48.90;;;;;;5054212;28;20123;-72
2022/05/02 13:39:44;;;;;;;7.80;6.35;;;18.20;50.70;;;;;;5053582;28;20041;-72
2022/05/02 13:42:17;;;;;;;7.07;5.78;;;18.50;50.50;;;;;;5054013;28;20102;-72
2022/05/02 13:44:52;;;;;;;9.82;6.43;;;18.30;49.10;;;;;;5054295;28;20095;-72
2022/05/02 13:47:22;;;;;;;10.88;7.35;;;18.10;52.10;;;;;;5052879;28;20041;-72
2022/05/02 13:50:11;;;;;;;10.38;6.82;;;17.50;52.00;;;;;;5036216;28;20036;-72
2022/05/02 13:52:47;;;;;;;10.07;7.68;;;17.90;52.90;;;;;;5052572;28;20033;-72